sensor_id;sensor_type;location;lat;lon;timestamp;P1;durP1;ratioP1;P2;durP2;ratioP2
19183;SDS011;9724;51.194;6.856;2022-08-19T00:02:16;12.30;;;9.13;;
19183;SDS011;9724;51.194;6.856;2022-08-19T00:04:44;12.30;;;7.80;;
19183;SDS011;9724;51.194;6.856;2022-08-19T00:07:14;12.70;;;7.93;;
19183;SDS011;9724;51.194;6.856;2022-08-19T00:09:41;10.67;;;8.63;;
19183;SDS011;9724;51.194;6.856;2022-08-19T00:12:11;9.57;;;7.50;;
19183;SDS011;9724;51.194;6.856;2022-08-19T00:14:39;11.43;;;8.47;;
19183;SDS011;9724;51.194;6.856;2022-08-19T00:17:07;12.83;;;8.80;;
19183;SDS011;9724;51.194;6.856;2022-08-19T00:19:35;9.73;;;8.10;;
19183;SDS011;9724;51.194;6.856;2022-08-19T00:22:04;10.93;;;7.73;;
19183;SDS011;9724;51.194;6.856;2022-08-19T00:24:32;10.50;;;8.10;;
19183;SDS011;9724;51.194;6.856;2022-08-19T00:27:01;11.50;;;8.30;;
19183;SDS011;9724;51.194;6.856;2022-08-19T00:29:50;14.50;;;8.00;;
19183;SDS011;9724;51.194;6.856;2022-08-19T00:32:18;14.87;;;7.87;;
19183;SDS011;9724;51.194;6.856;2022-08-19T00:34:46;11.73;;;8.10;;
19183;SDS011;9724;51.194;6.856;2022-08-19T00:37:14;13.57;;;7.90;;
19183;SDS011;9724;51.194;6.856;2022-08-19T00:39:41;9.40;;;8.03;;
19183;SDS011;9724;51.194;6.856;2022-08-19T00:42:09;12.37;;;8.07;;
19183;SDS011;9724;51.194;6.856;2022-08-19T00:44:37;11.53;;;7.97;;
19183;SDS011;9724;51.194;6.856;2022-08-19T00:47:07;11.90;;;8.00;;
19183;SDS011;9724;51.194;6.856;2022-08-19T00:49:41;14.60;;;7.97;;
19183;SDS011;9724;51.194;6.856;2022-08-19T00:52:15;9.63;;;8.63;;
19183;SDS011;9724;51.194;6.856;2022-08-19T00:54:47;14.07;;;8.40;;
19183;SDS011;9724;51.194;6.856;2022-08-19T00:57:18;12.43;;;8.47;;
19183;SDS011;9724;51.194;6.856;2022-08-19T00:59:51;9.70;;;7.80;;
19183;SDS011;9724;51.194;6.856;2022-08-19T01:02:29;10.20;;;8.67;;
19183;SDS011;9724;51.194;6.856;2022-08-19T01:04:59;11.23;;;8.53;;
19183;SDS011;9724;51.194;6.856;2022-08-19T01:07:27;16.20;;;8.93;;
19183;SDS011;9724;51.194;6.856;2022-08-19T01:10:04;10.70;;;8.20;;
19183;SDS011;9724;51.194;6.856;2022-08-19T01:12:33;9.10;;;8.20;;
19183;SDS011;9724;51.194;6.856;2022-08-19T01:15:01;8.90;;;7.83;;
19183;SDS011;9724;51.194;6.856;2022-08-19T01:17:30;8.53;;;7.73;;
19183;SDS011;9724;51.194;6.856;2022-08-19T01:19:58;11.60;;;7.80;;
19183;SDS011;9724;51.194;6.856;2022-08-19T01:22:28;10.37;;;8.60;;
19183;SDS011;9724;51.194;6.856;2022-08-19T01:24:59;8.37;;;7.57;;
19183;SDS011;9724;51.194;6.856;2022-08-19T01:27:27;11.03;;;8.70;;
19183;SDS011;9724;51.194;6.856;2022-08-19T01:30:09;11.70;;;7.90;;
19183;SDS011;9724;51.194;6.856;2022-08-19T01:32:40;10.90;;;7.77;;
19183;SDS011;9724;51.194;6.856;2022-08-19T01:35:09;9.03;;;8.13;;
19183;SDS011;9724;51.194;6.856;2022-08-19T01:37:43;9.50;;;7.90;;
19183;SDS011;9724;51.194;6.856;2022-08-19T01:40:12;9.17;;;8.27;;
19183;SDS011;9724;51.194;6.856;2022-08-19T01:42:40;13.80;;;8.43;;
19183;SDS011;9724;51.194;6.856;2022-08-19T01:45:08;12.00;;;7.80;;
19183;SDS011;9724;51.194;6.856;2022-08-19T01:47:36;10.23;;;8.17;;
19183;SDS011;9724;51.194;6.856;2022-08-19T01:50:05;11.33;;;8.30;;
19183;SDS011;9724;51.194;6.856;2022-08-19T01:52:34;9.73;;;7.77;;
19183;SDS011;9724;51.194;6.856;2022-08-19T01:55:05;11.57;;;8.50;;
19183;SDS011;9724;51.194;6.856;2022-08-19T01:57:34;10.67;;;7.67;;
19183;SDS011;9724;51.194;6.856;2022-08-19T02:00:03;11.73;;;8.10;;
19183;SDS011;9724;51.194;6.856;2022-08-19T02:02:32;8.37;;;7.57;;
19183;SDS011;9724;51.194;6.856;2022-08-19T02:05:00;10.43;;;8.30;;
19183;SDS011;9724;51.194;6.856;2022-08-19T02:07:27;11.47;;;8.23;;
19183;SDS011;9724;51.194;6.856;2022-08-19T02:09:55;10.13;;;7.87;;
19183;SDS011;9724;51.194;6.856;2022-08-19T02:12:25;10.37;;;7.80;;
19183;SDS011;9724;51.194;6.856;2022-08-19T02:14:52;11.57;;;8.10;;
19183;SDS011;9724;51.194;6.856;2022-08-19T02:17:20;9.10;;;7.83;;
19183;SDS011;9724;51.194;6.856;2022-08-19T02:19:47;10.30;;;8.67;;
19183;SDS011;9724;51.194;6.856;2022-08-19T02:22:15;8.97;;;8.07;;
19183;SDS011;9724;51.194;6.856;2022-08-19T02:24:43;9.67;;;8.67;;
19183;SDS011;9724;51.194;6.856;2022-08-19T02:27:11;9.23;;;8.33;;
19183;SDS011;9724;51.194;6.856;2022-08-19T02:29:40;9.43;;;8.10;;
19183;SDS011;9724;51.194;6.856;2022-08-19T02:32:07;9.63;;;8.50;;
19183;SDS011;9724;51.194;6.856;2022-08-19T02:34:35;9.73;;;8.73;;
19183;SDS011;9724;51.194;6.856;2022-08-19T02:37:03;12.13;;;9.10;;
19183;SDS011;9724;51.194;6.856;2022-08-19T02:39:30;13.10;;;9.07;;
19183;SDS011;9724;51.194;6.856;2022-08-19T02:41:57;14.33;;;9.03;;
19183;SDS011;9724;51.194;6.856;2022-08-19T02:44:25;10.57;;;8.50;;
19183;SDS011;9724;51.194;6.856;2022-08-19T02:46:58;11.47;;;9.03;;
19183;SDS011;9724;51.194;6.856;2022-08-19T02:49:26;11.93;;;9.43;;
19183;SDS011;9724;51.194;6.856;2022-08-19T02:51:53;14.40;;;9.53;;
19183;SDS011;9724;51.194;6.856;2022-08-19T02:54:21;12.33;;;9.33;;
19183;SDS011;9724;51.194;6.856;2022-08-19T02:56:49;9.77;;;8.10;;
19183;SDS011;9724;51.194;6.856;2022-08-19T02:59:16;11.20;;;8.43;;
19183;SDS011;9724;51.194;6.856;2022-08-19T03:01:48;9.50;;;8.50;;
19183;SDS011;9724;51.194;6.856;2022-08-19T03:04:18;10.63;;;9.17;;
19183;SDS011;9724;51.194;6.856;2022-08-19T03:06:46;10.67;;;8.37;;
19183;SDS011;9724;51.194;6.856;2022-08-19T03:09:14;10.23;;;8.63;;
19183;SDS011;9724;51.194;6.856;2022-08-19T03:11:42;15.63;;;8.70;;
19183;SDS011;9724;51.194;6.856;2022-08-19T03:14:10;9.03;;;8.13;;
19183;SDS011;9724;51.194;6.856;2022-08-19T03:16:40;15.13;;;7.60;;
19183;SDS011;9724;51.194;6.856;2022-08-19T03:19:09;10.33;;;7.47;;
19183;SDS011;9724;51.194;6.856;2022-08-19T03:21:38;8.17;;;7.00;;
19183;SDS011;9724;51.194;6.856;2022-08-19T03:24:07;7.70;;;6.87;;
19183;SDS011;9724;51.194;6.856;2022-08-19T03:26:38;8.63;;;7.67;;
19183;SDS011;9724;51.194;6.856;2022-08-19T03:29:06;8.30;;;7.50;;
19183;SDS011;9724;51.194;6.856;2022-08-19T03:31:37;8.20;;;7.40;;
19183;SDS011;9724;51.194;6.856;2022-08-19T03:34:10;9.13;;;7.23;;
19183;SDS011;9724;51.194;6.856;2022-08-19T03:36:41;8.70;;;7.67;;
19183;SDS011;9724;51.194;6.856;2022-08-19T03:39:09;11.23;;;7.50;;
19183;SDS011;9724;51.194;6.856;2022-08-19T03:41:38;8.73;;;6.80;;
19183;SDS011;9724;51.194;6.856;2022-08-19T03:44:11;7.43;;;6.73;;
19183;SDS011;9724;51.194;6.856;2022-08-19T03:46:44;11.03;;;7.90;;
19183;SDS011;9724;51.194;6.856;2022-08-19T03:49:13;8.07;;;7.27;;
19183;SDS011;9724;51.194;6.856;2022-08-19T03:51:45;9.53;;;6.73;;
19183;SDS011;9724;51.194;6.856;2022-08-19T03:54:14;8.60;;;6.90;;
19183;SDS011;9724;51.194;6.856;2022-08-19T03:56:44;9.77;;;7.40;;
19183;SDS011;9724;51.194;6.856;2022-08-19T03:59:16;9.90;;;7.73;;
19183;SDS011;9724;51.194;6.856;2022-08-19T04:01:52;8.90;;;6.80;;
19183;SDS011;9724;51.194;6.856;2022-08-19T04:04:21;7.57;;;6.80;;
19183;SDS011;9724;51.194;6.856;2022-08-19T04:06:50;9.77;;;7.33;;
19183;SDS011;9724;51.194;6.856;2022-08-19T04:09:19;9.17;;;7.17;;
19183;SDS011;9724;51.194;6.856;2022-08-19T04:11:48;8.27;;;7.47;;
19183;SDS011;9724;51.194;6.856;2022-08-19T04:14:21;8.70;;;7.60;;
19183;SDS011;9724;51.194;6.856;2022-08-19T04:16:50;11.03;;;7.80;;
19183;SDS011;9724;51.194;6.856;2022-08-19T04:19:19;15.27;;;8.30;;
19183;SDS011;9724;51.194;6.856;2022-08-19T04:21:48;14.40;;;8.20;;
19183;SDS011;9724;51.194;6.856;2022-08-19T04:24:18;13.87;;;8.23;;
19183;SDS011;9724;51.194;6.856;2022-08-19T04:26:47;13.03;;;8.30;;
19183;SDS011;9724;51.194;6.856;2022-08-19T04:29:16;15.27;;;8.10;;
19183;SDS011;9724;51.194;6.856;2022-08-19T04:31:48;10.80;;;7.53;;
19183;SDS011;9724;51.194;6.856;2022-08-19T04:34:17;16.17;;;8.13;;
19183;SDS011;9724;51.194;6.856;2022-08-19T04:36:48;16.40;;;8.37;;
19183;SDS011;9724;51.194;6.856;2022-08-19T04:39:20;12.90;;;8.13;;
19183;SDS011;9724;51.194;6.856;2022-08-19T04:41:49;9.63;;;8.57;;
19183;SDS011;9724;51.194;6.856;2022-08-19T04:44:34;14.63;;;9.03;;
19183;SDS011;9724;51.194;6.856;2022-08-19T04:47:11;12.47;;;8.37;;
19183;SDS011;9724;51.194;6.856;2022-08-19T04:49:39;11.90;;;8.77;;
19183;SDS011;9724;51.194;6.856;2022-08-19T04:52:07;16.00;;;9.53;;
19183;SDS011;9724;51.194;6.856;2022-08-19T04:54:36;14.30;;;9.23;;
19183;SDS011;9724;51.194;6.856;2022-08-19T04:57:06;13.90;;;10.00;;
19183;SDS011;9724;51.194;6.856;2022-08-19T04:59:37;15.23;;;9.97;;
19183;SDS011;9724;51.194;6.856;2022-08-19T05:02:06;18.07;;;10.07;;
19183;SDS011;9724;51.194;6.856;2022-08-19T05:04:35;15.10;;;10.33;;
19183;SDS011;9724;51.194;6.856;2022-08-19T05:07:05;18.43;;;10.90;;
19183;SDS011;9724;51.194;6.856;2022-08-19T05:09:33;18.17;;;10.50;;
19183;SDS011;9724;51.194;6.856;2022-08-19T05:12:23;15.67;;;10.93;;
19183;SDS011;9724;51.194;6.856;2022-08-19T05:14:54;10.70;;;9.43;;
19183;SDS011;9724;51.194;6.856;2022-08-19T05:17:22;21.53;;;11.00;;
19183;SDS011;9724;51.194;6.856;2022-08-19T05:19:54;14.23;;;10.70;;
19183;SDS011;9724;51.194;6.856;2022-08-19T05:22:40;16.53;;;11.40;;
19183;SDS011;9724;51.194;6.856;2022-08-19T05:25:10;17.13;;;10.83;;
19183;SDS011;9724;51.194;6.856;2022-08-19T05:27:41;19.40;;;11.60;;
19183;SDS011;9724;51.194;6.856;2022-08-19T05:30:09;12.67;;;9.73;;
19183;SDS011;9724;51.194;6.856;2022-08-19T05:32:39;15.43;;;9.90;;
19183;SDS011;9724;51.194;6.856;2022-08-19T05:35:07;14.47;;;9.40;;
19183;SDS011;9724;51.194;6.856;2022-08-19T05:37:35;11.30;;;9.83;;
19183;SDS011;9724;51.194;6.856;2022-08-19T05:40:06;9.10;;;8.10;;
19183;SDS011;9724;51.194;6.856;2022-08-19T05:42:35;16.93;;;10.67;;
19183;SDS011;9724;51.194;6.856;2022-08-19T05:45:05;13.83;;;9.73;;
19183;SDS011;9724;51.194;6.856;2022-08-19T05:47:33;13.70;;;10.13;;
19183;SDS011;9724;51.194;6.856;2022-08-19T05:50:07;16.70;;;11.83;;
19183;SDS011;9724;51.194;6.856;2022-08-19T05:52:36;21.33;;;14.50;;
19183;SDS011;9724;51.194;6.856;2022-08-19T05:55:11;18.30;;;14.50;;
19183;SDS011;9724;51.194;6.856;2022-08-19T05:57:39;40.27;;;28.40;;
19183;SDS011;9724;51.194;6.856;2022-08-19T06:00:10;49.03;;;29.73;;
19183;SDS011;9724;51.194;6.856;2022-08-19T06:02:39;45.10;;;31.93;;
19183;SDS011;9724;51.194;6.856;2022-08-19T06:05:07;46.47;;;33.63;;
19183;SDS011;9724;51.194;6.856;2022-08-19T06:07:36;45.67;;;34.17;;
19183;SDS011;9724;51.194;6.856;2022-08-19T06:10:05;49.03;;;34.37;;
19183;SDS011;9724;51.194;6.856;2022-08-19T06:12:35;54.00;;;35.87;;
19183;SDS011;9724;51.194;6.856;2022-08-19T06:15:05;48.37;;;35.17;;
19183;SDS011;9724;51.194;6.856;2022-08-19T06:17:36;48.80;;;36.27;;
19183;SDS011;9724;51.194;6.856;2022-08-19T06:20:05;52.57;;;36.60;;
19183;SDS011;9724;51.194;6.856;2022-08-19T06:22:37;50.50;;;36.73;;
19183;SDS011;9724;51.194;6.856;2022-08-19T06:25:05;60.67;;;38.10;;
19183;SDS011;9724;51.194;6.856;2022-08-19T06:27:35;63.37;;;39.40;;
19183;SDS011;9724;51.194;6.856;2022-08-19T06:30:18;61.20;;;37.70;;
19183;SDS011;9724;51.194;6.856;2022-08-19T06:32:47;56.27;;;36.30;;
19183;SDS011;9724;51.194;6.856;2022-08-19T06:35:16;53.40;;;36.10;;
19183;SDS011;9724;51.194;6.856;2022-08-19T06:37:44;56.17;;;37.23;;
19183;SDS011;9724;51.194;6.856;2022-08-19T06:40:12;61.10;;;37.90;;
19183;SDS011;9724;51.194;6.856;2022-08-19T06:42:40;60.93;;;38.57;;
19183;SDS011;9724;51.194;6.856;2022-08-19T06:45:19;56.63;;;38.40;;
19183;SDS011;9724;51.194;6.856;2022-08-19T06:47:51;55.27;;;37.63;;
19183;SDS011;9724;51.194;6.856;2022-08-19T06:50:22;55.20;;;38.17;;
19183;SDS011;9724;51.194;6.856;2022-08-19T06:52:50;59.07;;;38.93;;
19183;SDS011;9724;51.194;6.856;2022-08-19T06:55:19;55.53;;;38.10;;
19183;SDS011;9724;51.194;6.856;2022-08-19T06:57:46;57.53;;;39.13;;
19183;SDS011;9724;51.194;6.856;2022-08-19T07:00:16;59.67;;;38.30;;
19183;SDS011;9724;51.194;6.856;2022-08-19T07:02:44;58.10;;;39.60;;
19183;SDS011;9724;51.194;6.856;2022-08-19T07:05:23;59.20;;;39.37;;
19183;SDS011;9724;51.194;6.856;2022-08-19T07:07:51;57.47;;;38.90;;
19183;SDS011;9724;51.194;6.856;2022-08-19T07:10:23;59.43;;;39.00;;
19183;SDS011;9724;51.194;6.856;2022-08-19T07:12:51;61.20;;;38.87;;
19183;SDS011;9724;51.194;6.856;2022-08-19T07:15:20;57.90;;;39.73;;
19183;SDS011;9724;51.194;6.856;2022-08-19T07:17:47;56.23;;;38.93;;
19183;SDS011;9724;51.194;6.856;2022-08-19T07:20:18;56.33;;;38.40;;
19183;SDS011;9724;51.194;6.856;2022-08-19T07:22:47;58.43;;;38.33;;
19183;SDS011;9724;51.194;6.856;2022-08-19T07:25:15;61.30;;;39.57;;
19183;SDS011;9724;51.194;6.856;2022-08-19T07:27:44;64.90;;;39.27;;
19183;SDS011;9724;51.194;6.856;2022-08-19T07:30:19;62.30;;;39.03;;
19183;SDS011;9724;51.194;6.856;2022-08-19T07:32:51;57.47;;;38.63;;
19183;SDS011;9724;51.194;6.856;2022-08-19T07:35:19;58.33;;;37.63;;
19183;SDS011;9724;51.194;6.856;2022-08-19T07:37:48;52.90;;;38.03;;
19183;SDS011;9724;51.194;6.856;2022-08-19T07:40:15;59.43;;;37.90;;
19183;SDS011;9724;51.194;6.856;2022-08-19T07:42:43;56.63;;;37.27;;
19183;SDS011;9724;51.194;6.856;2022-08-19T07:45:11;60.40;;;36.87;;
19183;SDS011;9724;51.194;6.856;2022-08-19T07:47:39;57.70;;;36.77;;
19183;SDS011;9724;51.194;6.856;2022-08-19T07:50:24;54.93;;;35.20;;
19183;SDS011;9724;51.194;6.856;2022-08-19T07:52:53;54.00;;;35.77;;
19183;SDS011;9724;51.194;6.856;2022-08-19T07:55:22;51.70;;;35.03;;
19183;SDS011;9724;51.194;6.856;2022-08-19T07:58:09;50.33;;;33.03;;
19183;SDS011;9724;51.194;6.856;2022-08-19T08:00:38;57.57;;;33.20;;
19183;SDS011;9724;51.194;6.856;2022-08-19T08:03:06;50.30;;;32.77;;
19183;SDS011;9724;51.194;6.856;2022-08-19T08:05:34;52.40;;;30.57;;
19183;SDS011;9724;51.194;6.856;2022-08-19T08:08:21;43.43;;;29.50;;
19183;SDS011;9724;51.194;6.856;2022-08-19T08:11:13;45.13;;;29.70;;
19183;SDS011;9724;51.194;6.856;2022-08-19T08:13:43;39.03;;;27.17;;
19183;SDS011;9724;51.194;6.856;2022-08-19T08:16:10;45.00;;;29.47;;
19183;SDS011;9724;51.194;6.856;2022-08-19T08:18:39;41.60;;;29.30;;
19183;SDS011;9724;51.194;6.856;2022-08-19T08:21:15;43.17;;;27.53;;
19183;SDS011;9724;51.194;6.856;2022-08-19T08:23:44;43.80;;;26.70;;
19183;SDS011;9724;51.194;6.856;2022-08-19T08:26:12;41.47;;;26.63;;
19183;SDS011;9724;51.194;6.856;2022-08-19T08:28:41;39.17;;;25.70;;
19183;SDS011;9724;51.194;6.856;2022-08-19T08:31:14;34.43;;;23.73;;
19183;SDS011;9724;51.194;6.856;2022-08-19T08:33:42;33.03;;;24.37;;
19183;SDS011;9724;51.194;6.856;2022-08-19T08:36:10;35.47;;;23.67;;
19183;SDS011;9724;51.194;6.856;2022-08-19T08:38:39;38.53;;;23.63;;
19183;SDS011;9724;51.194;6.856;2022-08-19T08:41:11;42.17;;;24.30;;
19183;SDS011;9724;51.194;6.856;2022-08-19T08:43:46;43.47;;;25.00;;
19183;SDS011;9724;51.194;6.856;2022-08-19T08:46:18;37.50;;;25.40;;
19183;SDS011;9724;51.194;6.856;2022-08-19T08:48:59;43.43;;;28.13;;
19183;SDS011;9724;51.194;6.856;2022-08-19T08:51:37;46.03;;;28.23;;
19183;SDS011;9724;51.194;6.856;2022-08-19T08:54:12;51.63;;;31.90;;
19183;SDS011;9724;51.194;6.856;2022-08-19T08:56:43;47.97;;;30.70;;
19183;SDS011;9724;51.194;6.856;2022-08-19T08:59:12;51.33;;;29.47;;
19183;SDS011;9724;51.194;6.856;2022-08-19T09:01:43;46.00;;;29.63;;
19183;SDS011;9724;51.194;6.856;2022-08-19T09:04:12;51.50;;;30.03;;
19183;SDS011;9724;51.194;6.856;2022-08-19T09:06:42;46.53;;;29.57;;
19183;SDS011;9724;51.194;6.856;2022-08-19T09:09:17;54.57;;;30.77;;
19183;SDS011;9724;51.194;6.856;2022-08-19T09:11:52;53.57;;;29.20;;
19183;SDS011;9724;51.194;6.856;2022-08-19T09:14:31;46.97;;;28.10;;
19183;SDS011;9724;51.194;6.856;2022-08-19T09:17:18;62.07;;;28.00;;
19183;SDS011;9724;51.194;6.856;2022-08-19T09:19:57;49.17;;;29.13;;
19183;SDS011;9724;51.194;6.856;2022-08-19T09:22:30;58.07;;;29.47;;
19183;SDS011;9724;51.194;6.856;2022-08-19T09:24:59;55.40;;;25.67;;
19183;SDS011;9724;51.194;6.856;2022-08-19T09:27:28;58.47;;;26.00;;
19183;SDS011;9724;51.194;6.856;2022-08-19T09:30:10;96.87;;;26.00;;
19183;SDS011;9724;51.194;6.856;2022-08-19T09:32:41;71.13;;;24.53;;
19183;SDS011;9724;51.194;6.856;2022-08-19T09:35:09;41.63;;;23.57;;
19183;SDS011;9724;51.194;6.856;2022-08-19T09:37:38;42.07;;;23.37;;
19183;SDS011;9724;51.194;6.856;2022-08-19T09:40:06;37.87;;;20.73;;
19183;SDS011;9724;51.194;6.856;2022-08-19T09:42:38;28.43;;;18.90;;
19183;SDS011;9724;51.194;6.856;2022-08-19T09:45:17;24.67;;;15.53;;
19183;SDS011;9724;51.194;6.856;2022-08-19T09:47:48;27.77;;;16.43;;
19183;SDS011;9724;51.194;6.856;2022-08-19T09:50:19;26.47;;;15.23;;
19183;SDS011;9724;51.194;6.856;2022-08-19T09:52:47;31.30;;;17.63;;
19183;SDS011;9724;51.194;6.856;2022-08-19T09:55:23;22.53;;;17.40;;
19183;SDS011;9724;51.194;6.856;2022-08-19T09:57:58;27.13;;;15.83;;
19183;SDS011;9724;51.194;6.856;2022-08-19T10:00:27;24.33;;;16.97;;
19183;SDS011;9724;51.194;6.856;2022-08-19T10:02:57;26.43;;;17.63;;
19183;SDS011;9724;51.194;6.856;2022-08-19T10:05:26;21.80;;;15.50;;
19183;SDS011;9724;51.194;6.856;2022-08-19T10:08:21;24.97;;;16.80;;
19183;SDS011;9724;51.194;6.856;2022-08-19T10:10:52;23.80;;;17.80;;
19183;SDS011;9724;51.194;6.856;2022-08-19T10:13:23;24.77;;;17.10;;
19183;SDS011;9724;51.194;6.856;2022-08-19T10:15:52;22.00;;;15.15;;
19183;SDS011;9724;51.194;6.856;2022-08-19T10:18:22;22.40;;;17.30;;
19183;SDS011;9724;51.194;6.856;2022-08-19T10:20:52;24.43;;;16.50;;
19183;SDS011;9724;51.194;6.856;2022-08-19T10:23:28;23.57;;;15.30;;
19183;SDS011;9724;51.194;6.856;2022-08-19T10:26:00;18.60;;;13.43;;
19183;SDS011;9724;51.194;6.856;2022-08-19T10:28:30;28.13;;;16.73;;
19183;SDS011;9724;51.194;6.856;2022-08-19T10:30:58;28.98;;;16.02;;
19183;SDS011;9724;51.194;6.856;2022-08-19T10:33:30;25.63;;;15.02;;
19183;SDS011;9724;51.194;6.856;2022-08-19T10:36:20;21.95;;;15.07;;
19183;SDS011;9724;51.194;6.856;2022-08-19T10:38:50;20.70;;;14.18;;
19183;SDS011;9724;51.194;6.856;2022-08-19T10:41:23;23.77;;;16.10;;
19183;SDS011;9724;51.194;6.856;2022-08-19T10:43:55;26.50;;;16.63;;
19183;SDS011;9724;51.194;6.856;2022-08-19T10:46:29;25.92;;;16.75;;
19183;SDS011;9724;51.194;6.856;2022-08-19T10:48:59;20.50;;;14.48;;
19183;SDS011;9724;51.194;6.856;2022-08-19T10:51:27;21.50;;;13.90;;
19183;SDS011;9724;51.194;6.856;2022-08-19T10:54:14;21.03;;;14.17;;
19183;SDS011;9724;51.194;6.856;2022-08-19T10:56:41;22.73;;;14.17;;
19183;SDS011;9724;51.194;6.856;2022-08-19T10:59:19;16.93;;;11.63;;
19183;SDS011;9724;51.194;6.856;2022-08-19T11:01:52;21.45;;;13.05;;
19183;SDS011;9724;51.194;6.856;2022-08-19T11:04:22;18.80;;;12.27;;
19183;SDS011;9724;51.194;6.856;2022-08-19T11:06:55;15.32;;;11.80;;
19183;SDS011;9724;51.194;6.856;2022-08-19T11:09:23;14.85;;;10.02;;
19183;SDS011;9724;51.194;6.856;2022-08-19T11:11:59;13.60;;;8.98;;
19183;SDS011;9724;51.194;6.856;2022-08-19T11:14:31;14.40;;;10.70;;
19183;SDS011;9724;51.194;6.856;2022-08-19T11:17:00;19.77;;;9.80;;
19183;SDS011;9724;51.194;6.856;2022-08-19T11:19:28;16.17;;;10.48;;
19183;SDS011;9724;51.194;6.856;2022-08-19T11:21:56;14.63;;;11.60;;
19183;SDS011;9724;51.194;6.856;2022-08-19T11:24:25;15.95;;;9.95;;
19183;SDS011;9724;51.194;6.856;2022-08-19T11:26:54;18.20;;;12.18;;
19183;SDS011;9724;51.194;6.856;2022-08-19T11:29:26;17.92;;;12.45;;
19183;SDS011;9724;51.194;6.856;2022-08-19T11:31:56;16.35;;;12.27;;
19183;SDS011;9724;51.194;6.856;2022-08-19T11:34:25;15.30;;;11.27;;
19183;SDS011;9724;51.194;6.856;2022-08-19T11:36:55;17.25;;;10.68;;
19183;SDS011;9724;51.194;6.856;2022-08-19T11:39:26;14.73;;;11.35;;
19183;SDS011;9724;51.194;6.856;2022-08-19T11:41:55;14.30;;;11.15;;
19183;SDS011;9724;51.194;6.856;2022-08-19T11:44:23;16.85;;;11.45;;
19183;SDS011;9724;51.194;6.856;2022-08-19T11:46:51;14.18;;;9.70;;
19183;SDS011;9724;51.194;6.856;2022-08-19T11:49:20;11.25;;;9.98;;
19183;SDS011;9724;51.194;6.856;2022-08-19T11:51:48;12.07;;;9.95;;
19183;SDS011;9724;51.194;6.856;2022-08-19T11:54:19;12.15;;;9.52;;
19183;SDS011;9724;51.194;6.856;2022-08-19T11:56:47;14.30;;;9.63;;
19183;SDS011;9724;51.194;6.856;2022-08-19T11:59:15;12.23;;;8.98;;
19183;SDS011;9724;51.194;6.856;2022-08-19T12:01:42;19.05;;;10.25;;
19183;SDS011;9724;51.194;6.856;2022-08-19T12:04:10;11.32;;;8.73;;
19183;SDS011;9724;51.194;6.856;2022-08-19T12:06:40;9.75;;;6.93;;
19183;SDS011;9724;51.194;6.856;2022-08-19T12:09:09;12.82;;;8.10;;
19183;SDS011;9724;51.194;6.856;2022-08-19T12:11:37;12.43;;;7.40;;
19183;SDS011;9724;51.194;6.856;2022-08-19T12:14:08;9.70;;;7.03;;
19183;SDS011;9724;51.194;6.856;2022-08-19T12:16:40;8.70;;;6.10;;
19183;SDS011;9724;51.194;6.856;2022-08-19T12:19:17;7.30;;;6.15;;
19183;SDS011;9724;51.194;6.856;2022-08-19T12:21:49;7.20;;;6.00;;
19183;SDS011;9724;51.194;6.856;2022-08-19T12:24:19;8.38;;;5.85;;
19183;SDS011;9724;51.194;6.856;2022-08-19T12:26:49;10.25;;;7.15;;
19183;SDS011;9724;51.194;6.856;2022-08-19T12:29:18;10.80;;;7.88;;
19183;SDS011;9724;51.194;6.856;2022-08-19T12:31:49;9.90;;;7.57;;
19183;SDS011;9724;51.194;6.856;2022-08-19T12:34:17;10.13;;;7.55;;
19183;SDS011;9724;51.194;6.856;2022-08-19T12:36:46;8.18;;;7.30;;
19183;SDS011;9724;51.194;6.856;2022-08-19T12:39:16;11.32;;;7.47;;
19183;SDS011;9724;51.194;6.856;2022-08-19T12:41:44;7.72;;;6.47;;
19183;SDS011;9724;51.194;6.856;2022-08-19T12:44:20;10.75;;;7.70;;
19183;SDS011;9724;51.194;6.856;2022-08-19T12:46:59;11.05;;;6.70;;
19183;SDS011;9724;51.194;6.856;2022-08-19T12:49:29;5.90;;;5.40;;
19183;SDS011;9724;51.194;6.856;2022-08-19T12:52:17;9.68;;;5.93;;
19183;SDS011;9724;51.194;6.856;2022-08-19T12:54:50;10.98;;;6.80;;
19183;SDS011;9724;51.194;6.856;2022-08-19T12:57:21;9.30;;;6.65;;
19183;SDS011;9724;51.194;6.856;2022-08-19T12:59:57;10.77;;;6.22;;
19183;SDS011;9724;51.194;6.856;2022-08-19T13:02:25;9.10;;;6.15;;
19183;SDS011;9724;51.194;6.856;2022-08-19T13:04:53;10.70;;;6.07;;
19183;SDS011;9724;51.194;6.856;2022-08-19T13:07:21;7.38;;;5.65;;
19183;SDS011;9724;51.194;6.856;2022-08-19T13:09:52;9.55;;;6.25;;
19183;SDS011;9724;51.194;6.856;2022-08-19T13:12:19;11.70;;;6.85;;
19183;SDS011;9724;51.194;6.856;2022-08-19T13:14:50;9.55;;;6.22;;
19183;SDS011;9724;51.194;6.856;2022-08-19T13:17:18;10.68;;;6.70;;
19183;SDS011;9724;51.194;6.856;2022-08-19T13:19:46;7.10;;;6.35;;
19183;SDS011;9724;51.194;6.856;2022-08-19T13:22:14;7.45;;;5.90;;
19183;SDS011;9724;51.194;6.856;2022-08-19T13:24:42;8.20;;;6.20;;
19183;SDS011;9724;51.194;6.856;2022-08-19T13:27:14;6.53;;;6.00;;
19183;SDS011;9724;51.194;6.856;2022-08-19T13:29:42;9.38;;;6.65;;
19183;SDS011;9724;51.194;6.856;2022-08-19T13:32:28;9.65;;;7.05;;
19183;SDS011;9724;51.194;6.856;2022-08-19T13:35:14;17.75;;;6.40;;
19183;SDS011;9724;51.194;6.856;2022-08-19T13:37:42;9.52;;;6.18;;
19183;SDS011;9724;51.194;6.856;2022-08-19T13:40:12;7.70;;;5.88;;
19183;SDS011;9724;51.194;6.856;2022-08-19T13:42:43;9.90;;;5.38;;
19183;SDS011;9724;51.194;6.856;2022-08-19T13:45:14;14.85;;;5.65;;
19183;SDS011;9724;51.194;6.856;2022-08-19T13:47:45;9.25;;;5.72;;
19183;SDS011;9724;51.194;6.856;2022-08-19T13:50:15;8.50;;;5.00;;
19183;SDS011;9724;51.194;6.856;2022-08-19T13:52:44;6.95;;;4.80;;
19183;SDS011;9724;51.194;6.856;2022-08-19T13:55:14;7.55;;;5.22;;
19183;SDS011;9724;51.194;6.856;2022-08-19T13:57:52;6.57;;;4.80;;
19183;SDS011;9724;51.194;6.856;2022-08-19T14:00:21;8.93;;;4.35;;
19183;SDS011;9724;51.194;6.856;2022-08-19T14:02:53;6.15;;;4.60;;
19183;SDS011;9724;51.194;6.856;2022-08-19T14:05:24;5.10;;;4.60;;
19183;SDS011;9724;51.194;6.856;2022-08-19T14:07:52;11.13;;;4.55;;
19183;SDS011;9724;51.194;6.856;2022-08-19T14:10:20;5.10;;;4.60;;
19183;SDS011;9724;51.194;6.856;2022-08-19T14:12:49;6.18;;;5.35;;
19183;SDS011;9724;51.194;6.856;2022-08-19T14:15:22;8.48;;;4.40;;
19183;SDS011;9724;51.194;6.856;2022-08-19T14:17:50;6.88;;;5.47;;
19183;SDS011;9724;51.194;6.856;2022-08-19T14:20:21;7.15;;;4.97;;
19183;SDS011;9724;51.194;6.856;2022-08-19T14:22:51;9.48;;;4.68;;
19183;SDS011;9724;51.194;6.856;2022-08-19T14:25:21;27.92;;;5.35;;
19183;SDS011;9724;51.194;6.856;2022-08-19T14:27:50;5.43;;;4.30;;
19183;SDS011;9724;51.194;6.856;2022-08-19T14:30:22;4.40;;;3.90;;
19183;SDS011;9724;51.194;6.856;2022-08-19T14:32:51;5.38;;;3.70;;
19183;SDS011;9724;51.194;6.856;2022-08-19T14:35:20;6.72;;;3.92;;
19183;SDS011;9724;51.194;6.856;2022-08-19T14:37:48;4.85;;;3.63;;
19183;SDS011;9724;51.194;6.856;2022-08-19T14:40:18;8.35;;;3.60;;
19183;SDS011;9724;51.194;6.856;2022-08-19T14:42:47;10.60;;;3.65;;
19183;SDS011;9724;51.194;6.856;2022-08-19T14:45:15;6.57;;;3.72;;
19183;SDS011;9724;51.194;6.856;2022-08-19T14:47:44;7.82;;;4.45;;
19183;SDS011;9724;51.194;6.856;2022-08-19T14:50:12;17.33;;;3.80;;
19183;SDS011;9724;51.194;6.856;2022-08-19T14:52:44;9.27;;;3.92;;
19183;SDS011;9724;51.194;6.856;2022-08-19T14:55:12;27.92;;;4.38;;
19183;SDS011;9724;51.194;6.856;2022-08-19T14:57:40;4.72;;;3.55;;
19183;SDS011;9724;51.194;6.856;2022-08-19T15:00:08;6.10;;;3.50;;
19183;SDS011;9724;51.194;6.856;2022-08-19T15:02:39;10.60;;;3.53;;
19183;SDS011;9724;51.194;6.856;2022-08-19T15:05:08;4.07;;;3.65;;
19183;SDS011;9724;51.194;6.856;2022-08-19T15:07:36;5.60;;;3.63;;